Orbital elements of COSMOS 2251 DEB
| Launched | 15 June 1993 |
| Flight ended | – |
| Launch site | Plesetsk Missile and Space Complex, Russia |
| Owner | Commonwealth of Independent States (former USSR) |
| NORAD ID | 33920 |
| Date fetched |
Epoch osculation |
Inc. [°] |
Ecc. | RA asc node [hr] |
Arg Peri. [°] |
Mean anom [°] |
Mean motion [rev/day] |
Abs. mag |
| Date fetched |
Epoch osculation |
Inc. [°] |
Ecc. | RA asc node [hr] |
Arg Peri. [°] |
Mean anom [°] |
Mean motion [rev/day] |
Abs. mag |
| 2026 May 03 17:57 | 2026 Apr 29 19:42:26 | 74.0620 | 0.00316 | 2.3691 | 10.3033 | 349.8773 | 14.60535 | – |
| 2026 May 02 17:57 | 2026 Apr 29 19:42:26 | 74.0620 | 0.00316 | 2.3691 | 10.3033 | 349.8773 | 14.60535 | – |
| 2026 May 01 17:56 | 2026 Apr 29 19:42:26 | 74.0620 | 0.00316 | 2.3691 | 10.3033 | 349.8773 | 14.60535 | – |
| 2026 Apr 30 17:56 | 2026 Apr 29 19:42:26 | 74.0620 | 0.00316 | 2.3691 | 10.3033 | 349.8773 | 14.60535 | – |
| 2026 Apr 29 17:57 | 2026 Apr 23 02:35:56 | 74.0606 | 0.00314 | 3.2225 | 24.2805 | 349.8773 | 14.60535 | – |
| 2026 Apr 28 17:56 | 2026 Apr 23 02:35:56 | 74.0606 | 0.00314 | 3.2225 | 24.2805 | 349.8773 | 14.60535 | – |
| 2026 Apr 27 17:58 | 2026 Apr 23 02:35:56 | 74.0606 | 0.00314 | 3.2225 | 24.2805 | 349.8773 | 14.60535 | – |
| 2026 Apr 26 17:58 | 2026 Apr 23 02:35:56 | 74.0606 | 0.00314 | 3.2225 | 24.2805 | 349.8773 | 14.60535 | – |
| 2026 Apr 25 17:58 | 2026 Apr 23 02:35:56 | 74.0606 | 0.00314 | 3.2225 | 24.2805 | 349.8773 | 14.60535 | – |
| 2026 Apr 24 17:59 | 2026 Apr 23 02:35:56 | 74.0606 | 0.00314 | 3.2225 | 24.2805 | 349.8773 | 14.60535 | – |
| 2026 Apr 23 17:57 | 2026 Apr 17 21:39:05 | 74.0604 | 0.00311 | 3.8842 | 34.9995 | 349.8773 | 14.60535 | – |
| 2026 Apr 22 17:57 | 2026 Apr 17 21:39:05 | 74.0604 | 0.00311 | 3.8842 | 34.9995 | 349.8773 | 14.60535 | – |
| 2026 Apr 21 17:57 | 2026 Apr 17 21:39:05 | 74.0604 | 0.00311 | 3.8842 | 34.9995 | 349.8773 | 14.60535 | – |
| 2026 Apr 20 17:57 | 2026 Apr 17 21:39:05 | 74.0604 | 0.00311 | 3.8842 | 34.9995 | 349.8773 | 14.60535 | – |
| 2026 Apr 19 17:58 | 2026 Apr 17 21:39:05 | 74.0604 | 0.00311 | 3.8842 | 34.9995 | 349.8773 | 14.60535 | – |
| 2026 Apr 18 17:56 | 2026 Apr 11 07:49:02 | 74.0593 | 0.00307 | 4.7201 | 48.9435 | 349.8773 | 14.60535 | – |
| 2026 Apr 16 17:57 | 2026 Apr 11 07:49:02 | 74.0593 | 0.00307 | 4.7201 | 48.9435 | 349.8773 | 14.60535 | – |
| 2026 Apr 14 17:57 | 2026 Apr 11 07:49:02 | 74.0593 | 0.00307 | 4.7201 | 48.9435 | 349.8773 | 14.60535 | – |
| 2026 Apr 13 17:57 | 2026 Apr 11 07:49:02 | 74.0593 | 0.00307 | 4.7201 | 48.9435 | 349.8773 | 14.60535 | – |
| 2026 Apr 12 17:57 | 2026 Apr 07 08:27:21 | 74.0595 | 0.00304 | 5.2251 | 57.5211 | 349.8773 | 14.60535 | – |
| 2026 Apr 11 17:57 | 2026 Apr 07 08:27:21 | 74.0595 | 0.00304 | 5.2251 | 57.5211 | 349.8773 | 14.60535 | – |
| 2026 Apr 10 17:58 | 2026 Apr 07 08:27:21 | 74.0595 | 0.00304 | 5.2251 | 57.5211 | 349.8773 | 14.60535 | – |
| 2026 Apr 09 18:01 | 2026 Apr 07 08:27:21 | 74.0595 | 0.00304 | 5.2251 | 57.5211 | 349.8773 | 14.60535 | – |
| 2026 Apr 08 17:57 | 2026 Apr 07 08:27:21 | 74.0595 | 0.00304 | 5.2251 | 57.5211 | 349.8773 | 14.60535 | – |
| 2026 Apr 07 17:57 | 2026 Apr 01 09:24:23 | 74.0575 | 0.00303 | 5.9826 | 70.4763 | 349.8773 | 14.60535 | – |
| 2026 Apr 06 17:57 | 2026 Apr 01 09:24:23 | 74.0575 | 0.00303 | 5.9826 | 70.4763 | 349.8773 | 14.60535 | – |